createdAt,value
2019-03-03T00:01:43.916Z,66.46
2019-03-03T00:04:13.090Z,66.52
2019-03-03T00:06:42.471Z,66.46
2019-03-03T00:09:11.673Z,66.66
2019-03-03T00:11:41.233Z,66.59
2019-03-03T00:14:10.739Z,66.65
2019-03-03T00:16:40.100Z,66.60
2019-03-03T00:19:09.313Z,66.48
2019-03-03T00:21:38.873Z,66.39
2019-03-03T00:24:08.619Z,66.40
2019-03-03T00:26:37.832Z,66.35
2019-03-03T00:29:06.950Z,66.54
2019-03-03T00:31:38.426Z,66.62
2019-03-03T00:34:07.939Z,66.50
2019-03-03T00:36:55.107Z,66.35
2019-03-03T00:39:44.269Z,66.37
2019-03-03T00:42:32.723Z,66.41
2019-03-03T00:45:09.765Z,66.46
2019-03-03T00:47:55.095Z,66.31
2019-03-03T00:50:43.562Z,66.36
2019-03-03T00:53:19.007Z,66.29
2019-03-03T00:56:22.587Z,66.22
2019-03-03T00:59:02.219Z,66.03
2019-03-03T01:01:49.164Z,66.18
2019-03-03T01:04:47.131Z,66.08
2019-03-03T01:07:44.630Z,66.16
2019-03-03T01:10:38.651Z,65.88
2019-03-03T01:13:29.522Z,65.75
2019-03-03T01:16:30.150Z,65.83
2019-03-03T01:19:21.449Z,65.71
2019-03-03T01:22:21.948Z,65.50
2019-03-03T01:24:55.925Z,65.53
2019-03-03T01:27:26.639Z,65.40
2019-03-03T01:29:55.815Z,65.43
2019-03-03T01:32:25.109Z,65.52
2019-03-03T01:34:54.270Z,65.37
2019-03-03T01:37:23.852Z,65.50
2019-03-03T01:39:52.990Z,65.39
2019-03-03T01:42:22.963Z,65.43
2019-03-03T01:44:52.150Z,65.56
2019-03-03T01:47:22.074Z,65.61
2019-03-03T01:49:51.285Z,65.58
2019-03-03T01:52:20.770Z,65.39
2019-03-03T01:54:50.772Z,65.32
2019-03-03T01:57:19.964Z,65.25
2019-03-03T01:59:49.851Z,65.23
2019-03-03T02:02:18.998Z,65.20
2019-03-03T02:04:48.928Z,65.23
2019-03-03T02:07:18.443Z,65.15
2019-03-03T02:09:47.939Z,65.15
2019-03-03T02:12:17.154Z,64.98
2019-03-03T02:14:46.297Z,65.02
2019-03-03T02:17:15.590Z,64.84
2019-03-03T02:19:44.727Z,64.78
2019-03-03T02:22:13.968Z,64.98
2019-03-03T02:24:43.537Z,64.88
2019-03-03T02:27:13.233Z,65.09
2019-03-03T02:29:42.544Z,64.92
2019-03-03T02:32:12.364Z,64.60
2019-03-03T02:34:41.546Z,64.35
2019-03-03T02:37:10.691Z,64.42
2019-03-03T02:39:40.370Z,64.39
2019-03-03T02:42:09.870Z,64.32
2019-03-03T02:44:39.006Z,64.28
2019-03-03T02:47:09.011Z,64.27
2019-03-03T02:49:38.606Z,64.19
2019-03-03T02:52:08.116Z,64.07
2019-03-03T02:54:37.278Z,64.19
2019-03-03T02:57:06.970Z,64.19
2019-03-03T02:59:36.183Z,64.30
2019-03-03T03:02:10.726Z,64.21
2019-03-03T03:04:39.960Z,64.32
2019-03-03T03:07:19.515Z,64.37
2019-03-03T03:10:03.595Z,64.28
2019-03-03T03:12:54.821Z,64.38
2019-03-03T03:15:41.575Z,64.45
2019-03-03T03:18:32.653Z,64.94
2019-03-03T03:21:21.323Z,65.51
2019-03-03T03:24:15.718Z,65.63
2019-03-03T03:26:52.299Z,66.04
2019-03-03T03:29:27.198Z,66.66
2019-03-03T03:32:15.278Z,67.26
2019-03-03T03:35:03.454Z,67.73
2019-03-03T03:37:38.508Z,68.20
2019-03-03T03:40:22.871Z,67.94
2019-03-03T03:43:03.525Z,67.91
2019-03-03T03:45:45.403Z,67.80
2019-03-03T03:48:33.489Z,68.22
2019-03-03T03:51:33.766Z,68.17
2019-03-03T03:54:22.160Z,67.99
2019-03-03T03:57:13.401Z,68.18
2019-03-03T03:59:56.904Z,68.46
2019-03-03T04:02:57.134Z,68.52
2019-03-03T04:05:39.550Z,68.75
2019-03-03T04:08:17.624Z,68.91
2019-03-03T04:10:59.461Z,69.53
2019-03-03T04:13:35.627Z,70.67
2019-03-03T04:16:13.295Z,71.12
2019-03-03T04:18:57.054Z,71.38
2019-03-03T04:22:03.514Z,71.52
2019-03-03T04:24:50.187Z,71.68
2019-03-03T04:27:31.952Z,71.78
2019-03-03T04:30:16.016Z,71.98
2019-03-03T04:33:02.330Z,71.96
2019-03-03T04:35:50.447Z,71.79
2019-03-03T04:38:33.078Z,71.71
2019-03-03T04:41:24.325Z,71.56
2019-03-03T04:44:01.456Z,71.63
2019-03-03T04:46:58.384Z,72.05
2019-03-03T04:49:36.306Z,72.14
2019-03-03T04:52:22.816Z,73.00
2019-03-03T04:55:14.619Z,73.43
2019-03-03T04:58:01.882Z,73.41
2019-03-03T05:00:55.976Z,73.45
2019-03-03T05:03:39.807Z,73.06
2019-03-03T05:06:19.521Z,73.03
2019-03-03T05:08:56.378Z,72.75
2019-03-03T05:12:18.042Z,72.92
2019-03-03T05:14:49.556Z,73.07
2019-03-03T05:17:35.004Z,73.11
2019-03-03T05:20:05.003Z,73.29
2019-03-03T05:22:34.796Z,73.41
2019-03-03T05:25:04.175Z,73.17
2019-03-03T05:27:33.730Z,73.14
2019-03-03T05:30:03.617Z,73.15
2019-03-03T05:32:33.117Z,73.24
2019-03-03T05:35:02.626Z,73.54
2019-03-03T05:37:32.152Z,73.94
2019-03-03T05:40:01.336Z,74.07
2019-03-03T05:42:30.519Z,74.07
2019-03-03T05:45:00.231Z,74.01
2019-03-03T05:47:29.357Z,73.88
2019-03-03T05:49:58.939Z,73.86
2019-03-03T05:52:28.112Z,74.20
2019-03-03T05:54:57.279Z,74.66
2019-03-03T05:57:26.755Z,74.95
2019-03-03T05:59:55.930Z,75.09
2019-03-03T06:02:25.479Z,75.01
2019-03-03T06:04:55.034Z,74.72
2019-03-03T06:07:24.203Z,74.52
2019-03-03T06:09:53.384Z,74.64
2019-03-03T06:12:23.311Z,74.50
2019-03-03T06:14:52.441Z,74.32
2019-03-03T06:17:21.581Z,74.14
2019-03-03T06:19:50.852Z,74.02
2019-03-03T06:22:20.379Z,74.13
2019-03-03T06:24:49.535Z,74.11
2019-03-03T06:27:19.435Z,74.23
2019-03-03T06:29:48.596Z,74.48
2019-03-03T06:32:17.837Z,74.72
2019-03-03T06:34:47.262Z,74.68
2019-03-03T06:37:18.243Z,74.82
2019-03-03T06:39:49.314Z,74.81
2019-03-03T06:42:19.085Z,74.96
2019-03-03T06:44:48.257Z,75.11
2019-03-03T06:47:17.787Z,75.23
2019-03-03T06:49:47.294Z,75.16
2019-03-03T06:52:16.452Z,75.29
2019-03-03T06:54:45.614Z,75.32
2019-03-03T06:57:15.128Z,75.53
2019-03-03T06:59:44.625Z,75.55
2019-03-03T07:02:14.076Z,75.55
2019-03-03T07:04:43.565Z,75.45
2019-03-03T07:07:13.099Z,75.63
2019-03-03T07:09:42.327Z,75.72
2019-03-03T07:12:11.849Z,75.79
2019-03-03T07:14:41.380Z,75.72
2019-03-03T07:17:10.585Z,76.14
2019-03-03T07:19:39.804Z,76.55
2019-03-03T07:22:08.961Z,77.16
2019-03-03T07:24:38.236Z,77.58
2019-03-03T07:27:07.857Z,77.78
2019-03-03T07:29:37.350Z,78.13
2019-03-03T07:32:07.189Z,78.49
2019-03-03T07:34:36.674Z,78.70
2019-03-03T07:37:06.307Z,78.84
2019-03-03T07:39:35.511Z,78.95
2019-03-03T07:42:04.817Z,79.07
2019-03-03T07:44:33.952Z,79.06
2019-03-03T07:47:03.162Z,79.01
2019-03-03T07:49:32.683Z,78.91
2019-03-03T07:52:02.217Z,78.95
2019-03-03T07:54:31.499Z,78.94
2019-03-03T07:57:00.726Z,78.89
2019-03-03T07:59:30.323Z,78.71
2019-03-03T08:02:00.044Z,78.54
2019-03-03T08:04:29.223Z,78.31
2019-03-03T08:06:58.411Z,78.04
2019-03-03T08:09:28.245Z,77.81
2019-03-03T08:11:57.760Z,77.61
2019-03-03T08:14:27.100Z,77.35
2019-03-03T08:16:56.297Z,77.00
2019-03-03T08:19:25.470Z,76.85
2019-03-03T08:21:55.048Z,76.79
2019-03-03T08:24:24.883Z,76.54
2019-03-03T08:26:54.077Z,76.20
2019-03-03T08:29:23.685Z,76.19
2019-03-03T08:31:53.897Z,76.31
2019-03-03T08:34:23.125Z,76.23
2019-03-03T08:36:52.258Z,76.08
2019-03-03T08:39:21.781Z,76.23
2019-03-03T08:41:55.815Z,76.27
2019-03-03T08:44:47.157Z,76.29
2019-03-03T08:47:53.142Z,76.30
2019-03-03T08:50:52.336Z,76.37
2019-03-03T08:53:46.351Z,76.46
2019-03-03T08:56:31.420Z,76.59
2019-03-03T08:59:19.239Z,76.68
2019-03-03T09:01:57.986Z,76.90
2019-03-03T09:04:44.118Z,76.72
2019-03-03T09:07:25.495Z,76.65
2019-03-03T09:10:25.573Z,76.86
2019-03-03T09:13:11.944Z,77.04
2019-03-03T09:15:48.660Z,77.14
2019-03-03T09:18:41.235Z,77.15
2019-03-03T09:21:24.983Z,77.09
2019-03-03T09:24:13.145Z,77.29
2019-03-03T09:27:16.687Z,77.44
2019-03-03T09:29:57.547Z,77.41
2019-03-03T09:33:00.931Z,77.66
2019-03-03T09:35:44.798Z,77.66
2019-03-03T09:38:27.000Z,77.68
2019-03-03T09:41:09.829Z,77.71
2019-03-03T09:43:57.971Z,77.62
2019-03-03T09:46:46.501Z,77.72
2019-03-03T09:49:34.698Z,77.75
2019-03-03T09:52:25.941Z,77.89
2019-03-03T09:55:17.145Z,77.87
2019-03-03T09:58:02.212Z,78.09
2019-03-03T10:00:56.801Z,78.20
2019-03-03T10:03:58.039Z,78.29
2019-03-03T10:06:36.216Z,78.17
2019-03-03T10:09:34.968Z,78.11
2019-03-03T10:12:13.821Z,78.08
2019-03-03T10:14:50.032Z,78.07
2019-03-03T10:17:37.385Z,78.12
2019-03-03T10:20:20.912Z,78.18
2019-03-03T10:23:20.655Z,78.14
2019-03-03T10:26:15.218Z,78.03
2019-03-03T10:29:12.630Z,78.06
2019-03-03T10:31:52.759Z,78.12
2019-03-03T10:34:47.239Z,78.32
2019-03-03T10:37:25.578Z,78.46
2019-03-03T10:40:12.026Z,78.33
2019-03-03T10:43:02.552Z,78.40
2019-03-03T10:45:54.898Z,78.50
2019-03-03T10:48:37.004Z,78.61
2019-03-03T10:51:33.975Z,78.52
2019-03-03T10:54:40.594Z,78.64
2019-03-03T10:57:43.711Z,78.69
2019-03-03T11:00:36.193Z,78.65
2019-03-03T11:03:30.651Z,78.56
2019-03-03T11:06:12.344Z,78.46
2019-03-03T11:09:00.675Z,78.42
2019-03-03T11:11:53.268Z,78.32
2019-03-03T11:14:40.779Z,78.35
2019-03-03T11:17:34.987Z,78.30
2019-03-03T11:20:23.583Z,78.33
2019-03-03T11:23:19.258Z,78.02
2019-03-03T11:26:17.607Z,77.41
2019-03-03T11:29:01.640Z,77.04
2019-03-03T11:32:05.767Z,76.87
2019-03-03T11:34:56.951Z,76.90
2019-03-03T11:37:45.263Z,76.38
2019-03-03T11:40:31.805Z,75.84
2019-03-03T11:43:29.518Z,76.04
2019-03-03T11:46:18.825Z,76.05
2019-03-03T11:49:10.592Z,75.91
2019-03-03T11:52:03.308Z,76.10
2019-03-03T11:54:48.439Z,75.95
2019-03-03T11:57:22.560Z,76.08
2019-03-03T12:00:20.169Z,76.46
2019-03-03T12:03:08.997Z,76.43
2019-03-03T12:05:56.364Z,76.55
2019-03-03T12:08:48.400Z,76.54
2019-03-03T12:11:42.641Z,76.77
2019-03-03T12:14:31.276Z,76.41
2019-03-03T12:17:19.718Z,76.50
2019-03-03T12:20:07.260Z,76.43
2019-03-03T12:22:56.257Z,76.49
2019-03-03T12:25:34.690Z,76.91
2019-03-03T12:28:38.432Z,76.59
2019-03-03T12:31:38.814Z,76.54
2019-03-03T12:34:21.138Z,76.47
2019-03-03T12:37:15.348Z,76.62
2019-03-03T12:39:52.605Z,76.62
2019-03-03T12:42:29.451Z,76.77
2019-03-03T12:45:08.029Z,76.43
2019-03-03T12:47:53.881Z,76.75
2019-03-03T12:50:41.017Z,76.86
2019-03-03T12:53:35.732Z,76.94
2019-03-03T12:56:14.746Z,77.37
2019-03-03T12:58:54.106Z,77.37
2019-03-03T13:01:55.914Z,77.68
2019-03-03T13:04:45.109Z,77.68
2019-03-03T13:07:42.639Z,77.62
2019-03-03T13:10:29.440Z,77.75
2019-03-03T13:13:16.154Z,77.58
2019-03-03T13:16:03.027Z,77.38
2019-03-03T13:19:07.163Z,77.40
2019-03-03T13:22:07.872Z,77.27
2019-03-03T13:24:53.313Z,77.34
2019-03-03T13:27:32.461Z,77.25
2019-03-03T13:30:32.667Z,77.09
2019-03-03T13:33:18.292Z,77.03
2019-03-03T13:36:09.266Z,76.90
2019-03-03T13:38:56.502Z,76.86
2019-03-03T13:41:38.606Z,76.75
2019-03-03T13:44:07.806Z,76.70
2019-03-03T13:46:37.392Z,76.17
2019-03-03T13:49:07.027Z,76.16
2019-03-03T13:51:36.596Z,76.18
2019-03-03T13:54:06.709Z,75.97
2019-03-03T13:56:36.434Z,75.97
2019-03-03T13:59:05.578Z,75.87
2019-03-03T14:01:34.988Z,75.85
2019-03-03T14:04:04.187Z,75.76
2019-03-03T14:06:33.441Z,76.60
2019-03-03T14:09:02.845Z,76.60
2019-03-03T14:11:32.200Z,76.74
2019-03-03T14:14:01.807Z,76.96
2019-03-03T14:16:31.554Z,77.13
2019-03-03T14:19:01.358Z,77.32
2019-03-03T14:21:30.856Z,77.49
2019-03-03T14:24:00.490Z,77.55
2019-03-03T14:26:29.692Z,77.58
2019-03-03T14:28:59.809Z,77.44
2019-03-03T14:31:29.021Z,77.37
2019-03-03T14:33:58.585Z,77.05
2019-03-03T14:36:27.788Z,76.96
2019-03-03T14:38:57.305Z,77.12
2019-03-03T14:41:26.834Z,77.13
2019-03-03T14:43:56.074Z,77.17
2019-03-03T14:46:25.285Z,77.19
2019-03-03T14:48:54.876Z,77.09
2019-03-03T14:51:24.143Z,76.93
2019-03-03T14:53:53.821Z,77.06
2019-03-03T14:56:23.003Z,76.88
2019-03-03T14:58:52.186Z,77.09
2019-03-03T15:01:22.066Z,77.19
2019-03-03T15:03:51.243Z,77.32
2019-03-03T15:06:24.458Z,77.18
2019-03-03T15:08:52.118Z,77.34
2019-03-03T15:11:21.302Z,77.47
2019-03-03T15:13:51.216Z,77.47
2019-03-03T15:16:20.628Z,77.55
2019-03-03T15:18:50.112Z,77.87
2019-03-03T15:21:25.086Z,77.83
2019-03-03T15:23:51.204Z,77.84
2019-03-03T15:26:20.681Z,77.62
2019-03-03T15:28:50.202Z,77.64
2019-03-03T15:31:19.782Z,77.58
2019-03-03T15:33:49.331Z,77.51
2019-03-03T15:36:18.612Z,77.72
2019-03-03T15:38:48.707Z,77.73
2019-03-03T15:41:17.950Z,77.85
2019-03-03T15:43:47.815Z,77.90
2019-03-03T15:46:16.982Z,78.15
2019-03-03T15:48:46.148Z,78.22
2019-03-03T15:51:15.334Z,78.31
2019-03-03T15:53:44.536Z,78.30
2019-03-03T15:56:14.778Z,78.27
2019-03-03T15:58:44.204Z,78.33
2019-03-03T16:01:16.232Z,78.15
2019-03-03T16:03:45.524Z,77.93
2019-03-03T16:06:15.137Z,77.75
2019-03-03T16:08:44.396Z,77.54
2019-03-03T16:11:14.018Z,77.42
2019-03-03T16:13:43.249Z,77.48
2019-03-03T16:16:12.736Z,77.49
2019-03-03T16:18:41.915Z,77.61
2019-03-03T16:21:11.523Z,77.66
2019-03-03T16:23:41.796Z,77.74
2019-03-03T16:26:11.805Z,77.82
2019-03-03T16:28:41.277Z,77.90
2019-03-03T16:31:10.841Z,78.06
2019-03-03T16:33:40.726Z,78.06
2019-03-03T16:36:09.905Z,78.02
2019-03-03T16:38:39.847Z,78.10
2019-03-03T16:41:09.022Z,78.29
2019-03-03T16:43:38.208Z,78.40
2019-03-03T16:46:07.603Z,78.38
2019-03-03T16:48:37.051Z,78.25
2019-03-03T16:51:06.344Z,78.04
2019-03-03T16:53:35.515Z,77.96
2019-03-03T16:56:05.087Z,77.79
2019-03-03T16:58:34.247Z,77.56
2019-03-03T17:01:04.171Z,77.49
2019-03-03T17:03:33.689Z,76.96
2019-03-03T17:06:02.855Z,76.11
2019-03-03T17:08:32.585Z,76.15
2019-03-03T17:11:02.099Z,76.16
2019-03-03T17:13:31.563Z,75.95
2019-03-03T17:16:01.091Z,75.92
2019-03-03T17:18:30.690Z,75.91
2019-03-03T17:21:00.209Z,75.58
2019-03-03T17:23:29.374Z,75.48
2019-03-03T17:25:58.622Z,75.11
2019-03-03T17:28:27.834Z,74.74
2019-03-03T17:30:57.834Z,74.81
2019-03-03T17:33:27.005Z,74.53
2019-03-03T17:35:56.240Z,74.62
2019-03-03T17:38:25.687Z,74.45
2019-03-03T17:40:55.143Z,74.39
2019-03-03T17:43:24.674Z,74.03
2019-03-03T17:45:53.874Z,74.04
2019-03-03T17:48:23.026Z,73.99
2019-03-03T17:50:52.230Z,73.68
2019-03-03T17:53:21.435Z,73.73
2019-03-03T17:55:50.860Z,73.79
2019-03-03T17:58:21.520Z,73.96
2019-03-03T18:00:51.088Z,73.92
2019-03-03T18:03:20.725Z,73.66
2019-03-03T18:05:50.642Z,73.71
2019-03-03T18:08:20.180Z,73.18
2019-03-03T18:10:49.657Z,72.94
2019-03-03T18:13:19.159Z,73.20
2019-03-03T18:15:48.434Z,73.11
2019-03-03T18:18:18.318Z,73.06
2019-03-03T18:20:47.923Z,72.77
2019-03-03T18:23:18.266Z,72.69
2019-03-03T18:25:47.434Z,72.50
2019-03-03T18:28:16.667Z,72.46
2019-03-03T18:30:45.864Z,72.20
2019-03-03T18:33:15.537Z,72.03
2019-03-03T18:35:45.220Z,72.08
2019-03-03T18:38:15.129Z,72.16
2019-03-03T18:40:45.053Z,71.80
2019-03-03T18:43:14.351Z,71.71
2019-03-03T18:45:43.549Z,71.64
2019-03-03T18:48:12.852Z,71.53
2019-03-03T18:50:42.010Z,71.33
2019-03-03T18:53:11.161Z,71.06
2019-03-03T18:55:40.686Z,70.74
2019-03-03T18:58:09.904Z,70.37
2019-03-03T19:00:39.387Z,70.48
2019-03-03T19:03:08.540Z,70.63
2019-03-03T19:05:37.757Z,70.58
2019-03-03T19:08:06.955Z,70.39
2019-03-03T19:10:36.133Z,70.46
2019-03-03T19:13:07.015Z,70.33
2019-03-03T19:15:36.669Z,70.27
2019-03-03T19:18:06.414Z,70.31
2019-03-03T19:20:35.989Z,70.03
2019-03-03T19:23:07.676Z,70.08
2019-03-03T19:25:38.872Z,70.19
2019-03-03T19:28:08.487Z,69.91
2019-03-03T19:30:38.281Z,69.55
2019-03-03T19:33:11.408Z,69.61
2019-03-03T19:35:41.246Z,69.44
2019-03-03T19:38:10.940Z,69.48
2019-03-03T19:40:41.506Z,69.80
2019-03-03T19:43:11.706Z,69.59
2019-03-03T19:45:40.992Z,69.21
2019-03-03T19:48:10.720Z,69.16
2019-03-03T19:50:40.285Z,69.11
2019-03-03T19:53:11.129Z,69.10
2019-03-03T19:55:40.826Z,68.97
2019-03-03T19:58:12.416Z,69.10
2019-03-03T20:00:42.052Z,69.16
2019-03-03T20:03:11.858Z,69.01
2019-03-03T20:05:42.024Z,68.84
2019-03-03T20:08:13.110Z,68.38
2019-03-03T20:10:42.686Z,68.21
2019-03-03T20:13:12.225Z,68.32
2019-03-03T20:15:42.860Z,68.34
2019-03-03T20:18:13.774Z,68.01
2019-03-03T20:20:43.765Z,68.00
2019-03-03T20:23:13.592Z,68.31
2019-03-03T20:25:43.184Z,67.96
2019-03-03T20:28:14.352Z,67.82
2019-03-03T20:30:45.642Z,67.83
2019-03-03T20:33:14.848Z,68.06
2019-03-03T20:35:44.890Z,68.20
2019-03-03T20:38:14.367Z,68.48
2019-03-03T20:40:44.378Z,68.70
2019-03-03T20:43:14.213Z,68.54
2019-03-03T20:45:43.680Z,68.54
2019-03-03T20:48:13.158Z,68.59
2019-03-03T20:50:44.654Z,68.50
2019-03-03T20:53:16.857Z,68.46
2019-03-03T20:55:46.193Z,68.83
2019-03-03T20:58:15.709Z,68.80
2019-03-03T21:00:45.344Z,68.92
2019-03-03T21:03:14.670Z,68.72
2019-03-03T21:05:43.847Z,68.37
2019-03-03T21:08:13.118Z,68.03
2019-03-03T21:10:42.520Z,68.11
2019-03-03T21:13:12.195Z,68.99
2019-03-03T21:15:41.597Z,70.02
2019-03-03T21:18:11.203Z,70.71
2019-03-03T21:20:40.838Z,71.14
2019-03-03T21:23:10.357Z,71.22
2019-03-03T21:25:39.806Z,71.13
2019-03-03T21:28:09.133Z,71.15
2019-03-03T21:30:39.425Z,71.05
2019-03-03T21:33:09.199Z,70.93
2019-03-03T21:35:38.925Z,70.81
2019-03-03T21:38:08.721Z,70.77
2019-03-03T21:40:38.170Z,70.58
2019-03-03T21:43:07.626Z,70.37
2019-03-03T21:45:37.435Z,70.22
2019-03-03T21:48:07.753Z,69.99
2019-03-03T21:50:37.547Z,69.86
2019-03-03T21:53:08.374Z,69.46
2019-03-03T21:55:40.034Z,69.36
2019-03-03T21:58:09.420Z,68.87
2019-03-03T22:00:39.579Z,68.80
2019-03-03T22:03:08.982Z,68.94
2019-03-03T22:05:39.502Z,68.92
2019-03-03T22:08:09.021Z,68.79
2019-03-03T22:10:39.665Z,68.80
2019-03-03T22:13:12.253Z,68.89
2019-03-03T22:15:41.569Z,68.97
2019-03-03T22:18:31.502Z,68.82
2019-03-03T22:21:00.875Z,68.77
2019-03-03T22:23:30.655Z,68.73
2019-03-03T22:26:00.425Z,68.46
2019-03-03T22:28:30.667Z,68.31
2019-03-03T22:31:00.492Z,68.61
2019-03-03T22:33:30.804Z,68.39
2019-03-03T22:36:00.122Z,68.28
2019-03-03T22:38:30.008Z,67.87
2019-03-03T22:40:59.291Z,67.17
2019-03-03T22:43:28.816Z,66.89
2019-03-03T22:45:58.327Z,67.09
2019-03-03T22:48:27.515Z,67.12
2019-03-03T22:50:57.148Z,67.29
2019-03-03T22:53:26.328Z,67.30
2019-03-03T22:55:55.649Z,67.20
2019-03-03T22:58:24.886Z,66.99
2019-03-03T23:01:30.992Z,66.91
2019-03-03T23:04:47.051Z,66.84
2019-03-03T23:07:41.291Z,66.86
2019-03-03T23:10:43.198Z,66.99
2019-03-03T23:13:49.657Z,66.57
2019-03-03T23:16:40.661Z,66.54
2019-03-03T23:20:06.383Z,66.26
2019-03-03T23:23:03.158Z,66.37
2019-03-03T23:25:50.400Z,66.27
2019-03-03T23:28:20.846Z,66.07
2019-03-03T23:30:51.145Z,65.97
2019-03-03T23:33:20.596Z,65.78
2019-03-03T23:35:50.173Z,65.38
2019-03-03T23:38:19.653Z,65.30
2019-03-03T23:40:49.206Z,65.59
2019-03-03T23:43:18.353Z,66.05
2019-03-03T23:45:47.892Z,66.77
2019-03-03T23:48:17.069Z,68.31
2019-03-03T23:50:46.326Z,69.68
2019-03-03T23:53:15.591Z,70.54
2019-03-03T23:55:44.822Z,70.72
2019-03-03T23:58:14.430Z,70.58
